Time;durP1;ratioP1;P1;durP2;ratioP2;P2;SDS_P1;SDS_P2;PMS_P1;PMS_P2;Temp;Humidity;BMP_temperature;BMP_pressure;BME280_temperature;BME280_humidity;BME280_pressure;Samples;Min_cycle;Max_cycle;Signal;HPM_P1;HPM_P2
2022/05/19 00:00:28;;;;;;;8.83;4.00;;;20.90;38.60;;;;;;4975429;23;20986;-74
2022/05/19 00:02:56;;;;;;;3.77;3.20;;;20.90;38.60;;;;;;4940922;29;20489;-73
2022/05/19 00:05:23;;;;;;;3.37;2.83;;;20.90;38.60;;;;;;4939557;29;20799;-73
2022/05/19 00:07:50;;;;;;;4.87;3.57;;;20.90;38.80;;;;;;4939006;29;20457;-73
2022/05/19 00:10:17;;;;;;;4.70;4.20;;;20.90;39.10;;;;;;4938533;29;20513;-72
2022/05/19 00:12:44;;;;;;;5.30;3.40;;;20.80;39.50;;;;;;4938911;29;20460;-73
2022/05/19 00:15:12;;;;;;;3.27;3.07;;;20.70;39.50;;;;;;4939128;29;20454;-75
2022/05/19 00:17:39;;;;;;;3.60;3.40;;;20.60;39.40;;;;;;4939552;29;20435;-74
2022/05/19 00:20:09;;;;;;;6.97;3.90;;;20.50;39.30;;;;;;4938851;29;20541;-72
2022/05/19 00:22:36;;;;;;;6.03;3.90;;;20.50;39.30;;;;;;4938893;29;20480;-73
2022/05/19 00:25:03;;;;;;;3.47;3.27;;;20.50;39.30;;;;;;4938750;29;20528;-74
2022/05/19 00:27:30;;;;;;;3.93;3.27;;;20.50;39.30;;;;;;4938481;29;20796;-73
2022/05/19 00:29:57;;;;;;;3.70;3.30;;;20.50;39.30;;;;;;4938916;29;20462;-72
2022/05/19 00:32:24;;;;;;;3.97;3.67;;;20.50;39.30;;;;;;4939414;29;20497;-74
2022/05/19 00:34:50;;;;;;;5.67;3.70;;;20.50;39.30;;;;;;4939097;29;20468;-73
2022/05/19 00:37:19;;;;;;;3.20;3.00;;;20.50;39.30;;;;;;4941471;28;20583;-74
2022/05/19 00:39:46;;;;;;;3.70;3.10;;;20.50;39.30;;;;;;4937913;29;20454;-74
2022/05/19 00:45:02;;;;;;;3.20;2.97;;;20.60;39.40;;;;;;4938630;29;20920;-73
2022/05/19 00:47:36;;;;;;;3.30;3.10;;;20.70;38.10;;;;;;4938424;29;20473;-74
2022/05/19 00:50:05;;;;;;;5.30;3.07;;;20.80;38.20;;;;;;4937838;29;20429;-74
2022/05/19 00:52:38;;;;;;;3.40;3.20;;;20.70;38.20;;;;;;4937582;29;20877;-74
2022/05/19 00:55:09;;;;;;;5.20;3.70;;;20.70;38.50;;;;;;4937724;29;20437;-75
2022/05/19 00:57:41;;;;;;;3.20;2.90;;;20.60;38.50;;;;;;4942543;29;20440;-74
2022/05/19 01:00:11;;;;;;;3.43;3.13;;;20.60;38.50;;;;;;4959116;29;20445;-73
2022/05/19 01:02:41;;;;;;;3.40;3.10;;;20.60;38.40;;;;;;4953264;29;20522;-74
2022/05/19 01:05:11;;;;;;;5.33;3.23;;;20.60;38.80;;;;;;4947428;29;20525;-73
2022/05/19 01:07:46;;;;;;;4.57;3.40;;;20.50;39.30;;;;;;4945079;29;20500;-74
2022/05/19 01:10:14;;;;;;;7.80;3.30;;;20.40;39.20;;;;;;4943325;29;20469;-74
2022/05/19 01:12:45;;;;;;;3.80;3.50;;;20.40;39.20;;;;;;4943813;29;20505;-73
2022/05/19 01:15:12;;;;;;;3.10;2.90;;;20.30;39.10;;;;;;4942300;29;20528;-73
2022/05/19 01:17:39;;;;;;;3.43;3.03;;;20.20;39.70;;;;;;4940258;29;20458;-73
2022/05/19 01:20:11;;;;;;;3.10;2.90;;;20.20;39.00;;;;;;4938813;29;20532;-73
2022/05/19 01:22:48;;;;;;;3.57;3.27;;;20.10;39.00;;;;;;4939055;29;20509;-73
2022/05/19 01:25:26;;;;;;;3.80;3.10;;;19.90;40.10;;;;;;4940637;29;20461;-73
2022/05/19 01:27:55;;;;;;;3.10;2.90;;;19.80;40.00;;;;;;4938451;29;21004;-74
2022/05/19 01:30:22;;;;;;;4.13;3.23;;;19.70;40.20;;;;;;4937424;29;20439;-75
2022/05/19 01:32:49;;;;;;;3.50;3.20;;;19.60;40.40;;;;;;4937467;29;20459;-73
2022/05/19 01:35:16;;;;;;;4.03;3.20;;;19.50;40.80;;;;;;4937212;29;20454;-74
2022/05/19 01:37:43;;;;;;;4.07;3.37;;;19.50;41.10;;;;;;4937100;29;20532;-74
2022/05/19 01:40:23;;;;;;;3.60;3.30;;;19.40;41.60;;;;;;4936460;29;20433;-74
2022/05/19 01:42:58;;;;;;;4.87;3.50;;;19.30;41.50;;;;;;4936899;29;20556;-73
2022/05/19 01:45:46;;;;;;;4.73;3.00;;;19.30;41.50;;;;;;4936815;29;20534;-74
2022/05/19 01:48:21;;;;;;;4.00;3.50;;;19.30;41.60;;;;;;4936968;29;20525;-74
2022/05/19 01:50:51;;;;;;;3.80;3.50;;;19.30;41.60;;;;;;4937153;29;20555;-73
2022/05/19 01:53:25;;;;;;;3.63;3.33;;;19.30;41.40;;;;;;4938719;29;20468;-74
2022/05/19 01:55:58;;;;;;;3.77;3.47;;;19.30;41.50;;;;;;4947768;29;20552;-75
2022/05/19 01:58:31;;;;;;;3.37;3.07;;;19.30;42.30;;;;;;4950020;29;20454;-74
2022/05/19 02:01:01;;;;;;;4.13;3.30;;;19.30;41.20;;;;;;4943940;29;20463;-75
2022/05/19 02:03:34;;;;;;;4.80;3.20;;;19.30;41.10;;;;;;4955044;29;20500;-74
2022/05/19 02:06:08;;;;;;;3.97;3.03;;;19.40;40.90;;;;;;4952912;29;20517;-75
2022/05/19 02:08:42;;;;;;;3.40;3.20;;;19.30;40.70;;;;;;4939246;29;20509;-74
2022/05/19 02:11:14;;;;;;;3.83;3.40;;;19.30;41.00;;;;;;4938496;29;20552;-73
2022/05/19 02:13:43;;;;;;;3.30;3.10;;;19.20;41.30;;;;;;4937324;29;20441;-73
2022/05/19 02:16:14;;;;;;;3.33;3.13;;;19.20;41.40;;;;;;4936718;29;20589;-74
2022/05/19 02:18:43;;;;;;;3.60;3.40;;;19.10;41.50;;;;;;4936835;29;20469;-75
2022/05/19 02:21:10;;;;;;;3.57;3.27;;;19.00;41.70;;;;;;4936238;29;20515;-74
2022/05/19 02:23:42;;;;;;;3.40;3.20;;;18.90;42.10;;;;;;4936394;29;20429;-74
2022/05/19 02:26:10;;;;;;;4.60;3.30;;;18.90;42.10;;;;;;4935924;29;20433;-73
2022/05/19 02:28:42;;;;;;;3.40;3.10;;;18.90;42.40;;;;;;4935763;29;20433;-75
2022/05/19 02:31:10;;;;;;;3.30;2.67;;;18.80;42.60;;;;;;4935391;29;20461;-73
2022/05/19 02:33:37;;;;;;;3.23;2.93;;;18.80;42.60;;;;;;4935841;29;20444;-74
2022/05/19 02:36:05;;;;;;;4.00;3.70;;;18.80;42.50;;;;;;4936959;29;20490;-76
2022/05/19 02:38:33;;;;;;;6.03;3.40;;;18.80;42.50;;;;;;4939261;29;20439;-74
2022/05/19 02:41:00;;;;;;;3.70;3.40;;;18.80;42.50;;;;;;4935427;29;20459;-74
2022/05/19 02:43:27;;;;;;;3.60;3.20;;;18.70;42.40;;;;;;4935631;29;20441;-74
2022/05/19 02:45:54;;;;;;;3.40;3.10;;;18.70;42.70;;;;;;4935670;29;20528;-74
2022/05/19 02:48:23;;;;;;;3.33;3.03;;;18.60;42.60;;;;;;4935522;29;21012;-74
2022/05/19 02:50:51;;;;;;;2.73;2.53;;;18.60;42.80;;;;;;4934960;29;20457;-74
2022/05/19 02:53:19;;;;;;;3.20;3.00;;;18.60;43.00;;;;;;4935804;29;20466;-74
2022/05/19 02:55:46;;;;;;;3.40;2.93;;;18.60;43.00;;;;;;4935142;29;20417;-73
2022/05/19 02:58:14;;;;;;;5.67;3.67;;;18.50;42.90;;;;;;4935020;29;20989;-74
2022/05/19 03:00:47;;;;;;;3.33;3.03;;;18.50;43.10;;;;;;4934854;29;20514;-74
2022/05/19 03:03:14;;;;;;;3.63;3.10;;;18.50;43.10;;;;;;4935499;29;20550;-74
2022/05/19 03:05:43;;;;;;;5.10;3.63;;;18.50;43.20;;;;;;4935127;29;20454;-74
2022/05/19 03:08:10;;;;;;;3.67;3.37;;;18.50;43.00;;;;;;4934901;29;20489;-74
2022/05/19 03:10:40;;;;;;;6.93;3.43;;;18.40;43.00;;;;;;4935096;29;20536;-73
2022/05/19 03:13:07;;;;;;;3.60;3.30;;;18.40;43.10;;;;;;4935203;29;20473;-74
2022/05/19 03:15:35;;;;;;;4.03;3.17;;;18.40;43.10;;;;;;4934859;29;20465;-75
2022/05/19 03:18:02;;;;;;;3.00;2.80;;;18.30;43.30;;;;;;4935118;29;20505;-73
2022/05/19 03:20:30;;;;;;;4.10;3.00;;;18.30;43.30;;;;;;4935740;29;20437;-74
2022/05/19 03:22:58;;;;;;;6.13;3.50;;;18.30;43.40;;;;;;4937904;29;20931;-73
2022/05/19 03:25:25;;;;;;;3.57;3.30;;;18.30;43.50;;;;;;4947012;29;20801;-74
2022/05/19 03:27:52;;;;;;;3.27;3.07;;;18.20;43.60;;;;;;4941431;29;20525;-74
2022/05/19 03:30:19;;;;;;;3.90;3.50;;;18.20;44.00;;;;;;4943068;29;20553;-73
2022/05/19 03:32:46;;;;;;;3.47;3.17;;;18.10;44.80;;;;;;4943333;29;20439;-74
2022/05/19 03:35:14;;;;;;;7.40;3.50;;;18.10;44.10;;;;;;4943489;29;20458;-75
2022/05/19 03:37:41;;;;;;;5.60;3.10;;;18.10;44.10;;;;;;4942763;29;20532;-75
2022/05/19 03:40:12;;;;;;;3.80;2.90;;;18.10;45.00;;;;;;4942816;29;20569;-74
2022/05/19 03:42:39;;;;;;;5.27;3.50;;;18.00;44.20;;;;;;4943185;29;20465;-74
2022/05/19 03:45:07;;;;;;;3.00;2.73;;;18.00;44.20;;;;;;4941179;29;20439;-78
2022/05/19 03:47:34;;;;;;;3.93;3.07;;;18.00;44.20;;;;;;4941190;29;20480;-74
2022/05/19 03:50:01;;;;;;;3.70;3.40;;;18.00;44.20;;;;;;4941117;29;20433;-75
2022/05/19 03:52:28;;;;;;;3.50;3.23;;;18.00;44.20;;;;;;4941513;29;20532;-74
2022/05/19 03:54:55;;;;;;;5.33;3.60;;;18.00;44.30;;;;;;4941193;29;20479;-75
2022/05/19 03:57:23;;;;;;;4.07;2.93;;;18.00;44.20;;;;;;4941131;29;20498;-75
2022/05/19 03:59:51;;;;;;;4.87;3.10;;;18.00;44.30;;;;;;4940962;29;20916;-75
2022/05/19 04:02:17;;;;;;;3.70;3.33;;;18.00;44.80;;;;;;4940974;29;20481;-74
2022/05/19 04:04:44;;;;;;;3.17;2.97;;;18.00;44.40;;;;;;4942003;29;20428;-75
2022/05/19 04:07:11;;;;;;;3.87;3.57;;;18.00;44.30;;;;;;4942127;29;20464;-75
2022/05/19 04:09:38;;;;;;;5.40;3.50;;;17.90;44.30;;;;;;4941167;29;20960;-74
2022/05/19 04:12:06;;;;;;;3.80;3.50;;;18.00;44.30;;;;;;4943099;29;20462;-75
2022/05/19 04:14:34;;;;;;;3.37;3.17;;;18.00;44.40;;;;;;4945942;29;20560;-74
2022/05/19 04:17:01;;;;;;;3.70;3.17;;;18.00;44.10;;;;;;4948358;29;20486;-76
2022/05/19 04:19:28;;;;;;;3.70;2.97;;;18.00;44.10;;;;;;4945354;29;20455;-75
2022/05/19 04:21:55;;;;;;;5.50;3.40;;;18.10;44.20;;;;;;4949797;29;20449;-74
2022/05/19 04:24:22;;;;;;;3.00;2.80;;;18.10;43.80;;;;;;4947668;29;20524;-76
2022/05/19 04:26:49;;;;;;;6.67;3.30;;;18.20;43.50;;;;;;4946107;29;20552;-74
2022/05/19 04:29:16;;;;;;;3.40;3.10;;;18.30;43.30;;;;;;4942041;29;20459;-75
2022/05/19 04:31:44;;;;;;;3.70;3.33;;;18.20;43.40;;;;;;4941161;29;20559;-75
2022/05/19 04:34:11;;;;;;;3.57;3.27;;;18.20;43.50;;;;;;4941060;29;20437;-73
2022/05/19 04:36:37;;;;;;;5.10;3.53;;;18.20;43.80;;;;;;4937034;29;20494;-75
2022/05/19 04:39:05;;;;;;;9.67;3.10;;;18.30;43.90;;;;;;4937585;29;21042;-74
2022/05/19 04:41:32;;;;;;;4.03;3.37;;;18.30;43.60;;;;;;4937466;29;20455;-74
2022/05/19 04:43:58;;;;;;;5.07;3.33;;;18.30;43.50;;;;;;4937843;29;20484;-74
2022/05/19 04:46:25;;;;;;;4.20;3.40;;;18.40;43.30;;;;;;4937786;29;20462;-74
2022/05/19 04:48:54;;;;;;;6.50;3.17;;;18.40;43.30;;;;;;4938333;29;20519;-75
2022/05/19 04:51:20;;;;;;;4.93;2.90;;;18.50;43.00;;;;;;4937884;29;20457;-74
2022/05/19 04:53:47;;;;;;;3.43;3.13;;;18.60;42.60;;;;;;4937715;29;20786;-75
2022/05/19 04:56:14;;;;;;;5.33;3.13;;;18.80;42.30;;;;;;4937366;29;20527;-74
2022/05/19 04:58:41;;;;;;;5.27;3.20;;;18.90;42.20;;;;;;4937561;29;20476;-74
2022/05/19 05:01:09;;;;;;;3.37;3.07;;;19.00;42.10;;;;;;4937195;29;20741;-75
2022/05/19 05:03:36;;;;;;;3.93;3.40;;;19.30;41.70;;;;;;4937699;29;20775;-74
2022/05/19 05:06:04;;;;;;;4.00;2.57;;;19.70;40.70;;;;;;4937937;29;20481;-74
2022/05/19 05:08:31;;;;;;;3.73;2.83;;;19.90;39.60;;;;;;4937587;29;20425;-75
2022/05/19 05:10:58;;;;;;;4.27;3.20;;;19.90;39.60;;;;;;4937487;29;20490;-74
2022/05/19 05:13:25;;;;;;;5.37;3.10;;;20.10;39.70;;;;;;4939711;29;20432;-74
2022/05/19 05:15:51;;;;;;;5.20;3.07;;;20.40;39.20;;;;;;4940210;29;20899;-76
2022/05/19 05:18:18;;;;;;;3.10;2.63;;;21.00;38.50;;;;;;4938841;29;20560;-74
2022/05/19 05:20:45;;;;;;;3.77;2.90;;;21.30;36.60;;;;;;4937807;29;20805;-73
2022/05/19 05:23:14;;;;;;;2.60;2.40;;;21.40;36.50;;;;;;4939164;29;20476;-75
2022/05/19 05:25:41;;;;;;;3.47;2.80;;;21.80;35.90;;;;;;4937853;29;20528;-75
2022/05/19 05:28:08;;;;;;;3.63;3.33;;;21.60;35.90;;;;;;4937691;29;20939;-75
2022/05/19 05:30:35;;;;;;;5.63;3.17;;;22.00;35.60;;;;;;4937150;29;20469;-75
2022/05/19 05:33:07;;;;;;;3.50;2.87;;;21.90;34.90;;;;;;4938875;29;20979;-73
2022/05/19 05:35:34;;;;;;;3.93;3.30;;;21.80;35.10;;;;;;4937709;29;20466;-74
2022/05/19 05:38:01;;;;;;;8.27;2.80;;;22.20;33.80;;;;;;4936388;29;20468;-74
2022/05/19 05:40:30;;;;;;;2.80;2.60;;;23.10;32.40;;;;;;4936388;29;20457;-75
2022/05/19 05:42:56;;;;;;;3.20;2.80;;;23.30;31.50;;;;;;4936586;29;20500;-73
2022/05/19 05:45:23;;;;;;;4.50;2.67;;;23.60;31.70;;;;;;4937140;29;20486;-74
2022/05/19 05:47:50;;;;;;;6.17;2.70;;;23.30;31.60;;;;;;4936657;29;20429;-75
2022/05/19 05:50:17;;;;;;;3.00;2.67;;;23.90;30.70;;;;;;4936475;29;20429;-75
2022/05/19 05:52:44;;;;;;;5.43;2.97;;;23.50;31.30;;;;;;4936914;29;20470;-75
2022/05/19 05:55:11;;;;;;;3.40;3.10;;;24.50;29.70;;;;;;4936439;29;20437;-75
2022/05/19 05:57:39;;;;;;;2.73;2.37;;;25.00;28.40;;;;;;4935743;29;20494;-75
2022/05/19 06:00:09;;;;;;;2.60;2.40;;;25.00;28.40;;;;;;4936153;29;20465;-75
2022/05/19 06:02:36;;;;;;;2.60;2.40;;;25.40;27.70;;;;;;4937195;29;20489;-74
2022/05/19 06:05:03;;;;;;;5.50;2.63;;;25.70;27.40;;;;;;4935985;29;20467;-75
2022/05/19 06:07:30;;;;;;;4.00;2.60;;;26.20;26.30;;;;;;4936281;29;20520;-74
2022/05/19 06:09:57;;;;;;;2.90;2.60;;;26.50;25.80;;;;;;4936092;29;20436;-74
2022/05/19 06:12:25;;;;;;;5.30;3.13;;;26.80;25.30;;;;;;4936096;29;20850;-73
2022/05/19 06:14:56;;;;;;;2.57;2.37;;;26.90;25.30;;;;;;4936018;29;20480;-73
2022/05/19 06:17:23;;;;;;;3.93;2.80;;;27.20;25.50;;;;;;4936319;29;20500;-73
2022/05/19 06:19:50;;;;;;;4.20;2.77;;;27.20;25.50;;;;;;4938421;29;20473;-75
2022/05/19 06:22:17;;;;;;;3.10;2.77;;;27.20;24.80;;;;;;4937154;29;20478;-75
2022/05/19 06:24:44;;;;;;;5.70;2.80;;;26.80;25.30;;;;;;4935692;29;20539;-74
2022/05/19 06:27:11;;;;;;;4.03;2.43;;;27.20;25.30;;;;;;4935520;29;20450;-75
2022/05/19 06:29:38;;;;;;;7.10;2.27;;;27.40;24.80;;;;;;4935314;29;20433;-75
2022/05/19 06:32:11;;;;;;;5.60;3.10;;;27.70;24.50;;;;;;4936098;29;20453;-75
2022/05/19 06:34:38;;;;;;;5.70;2.83;;;27.70;24.60;;;;;;4935800;29;20536;-75
2022/05/19 06:37:05;;;;;;;6.10;2.90;;;27.80;24.50;;;;;;4936404;29;20429;-75
2022/05/19 06:39:32;;;;;;;4.03;3.03;;;27.50;25.60;;;;;;4940510;29;20530;-77
2022/05/19 06:42:01;;;;;;;6.37;2.57;;;27.70;25.20;;;;;;4937520;29;20486;-75
2022/05/19 06:44:29;;;;;;;4.83;2.40;;;27.90;24.40;;;;;;4939833;29;20493;-75
2022/05/19 06:46:56;;;;;;;4.27;2.90;;;27.80;23.50;;;;;;4937740;29;20466;-74
2022/05/19 06:49:25;;;;;;;3.53;2.87;;;27.20;25.30;;;;;;4935602;29;20545;-74
2022/05/19 06:51:52;;;;;;;4.93;2.73;;;26.20;26.10;;;;;;4935144;29;20455;-75
2022/05/19 06:54:22;;;;;;;5.00;2.60;;;26.30;26.00;;;;;;4935251;29;20482;-75
2022/05/19 06:56:48;;;;;;;4.20;2.70;;;26.20;25.90;;;;;;4935302;29;20797;-74
2022/05/19 06:59:16;;;;;;;4.80;2.63;;;25.70;27.10;;;;;;4939516;29;20496;-74
2022/05/19 07:01:44;;;;;;;4.00;2.53;;;25.40;27.00;;;;;;4947186;29;20497;-74
2022/05/19 07:04:12;;;;;;;4.10;2.90;;;25.00;28.10;;;;;;4947792;29;20503;-75
2022/05/19 07:06:40;;;;;;;3.80;3.10;;;25.00;28.00;;;;;;4947742;29;20541;-75
2022/05/19 07:09:07;;;;;;;4.00;3.00;;;24.90;28.10;;;;;;4946860;29;20443;-75
2022/05/19 07:11:34;;;;;;;7.17;2.83;;;24.80;28.80;;;;;;4948300;29;20448;-75
2022/05/19 07:14:04;;;;;;;6.80;3.00;;;25.00;28.80;;;;;;4946907;29;20436;-75
2022/05/19 07:16:32;;;;;;;19.30;3.80;;;24.90;29.20;;;;;;4948003;29;20444;-75
2022/05/19 07:21:42;;;;;;;4.07;3.03;;;24.80;28.70;;;;;;4935127;29;20449;-76
2022/05/19 07:24:12;;;;;;;5.77;3.30;;;24.80;29.00;;;;;;4935317;29;20428;-74
2022/05/19 07:26:39;;;;;;;3.23;3.03;;;24.70;29.50;;;;;;4935250;29;20842;-74
2022/05/19 07:29:06;;;;;;;5.20;3.50;;;24.80;29.50;;;;;;4935396;29;20432;-75
2022/05/19 07:31:33;;;;;;;6.13;3.37;;;24.90;28.90;;;;;;4936206;29;20478;-74
2022/05/19 07:34:00;;;;;;;8.57;3.67;;;24.90;29.80;;;;;;4935245;29;20433;-74
2022/05/19 07:36:26;;;;;;;3.50;3.13;;;25.00;29.50;;;;;;4934779;29;20571;-74
2022/05/19 07:38:56;;;;;;;6.03;3.10;;;25.10;29.00;;;;;;4935063;29;20527;-77
2022/05/19 07:41:23;;;;;;;4.57;3.07;;;25.10;28.90;;;;;;4940594;29;20493;-78
2022/05/19 07:43:52;;;;;;;5.03;3.43;;;25.20;29.20;;;;;;4949739;28;20456;-78
2022/05/19 07:46:19;;;;;;;3.50;3.30;;;25.10;29.40;;;;;;4938555;28;20466;-76
2022/05/19 07:48:46;;;;;;;3.63;3.20;;;24.80;29.90;;;;;;4936046;29;20454;-75
2022/05/19 07:51:13;;;;;;;4.83;3.20;;;25.00;29.80;;;;;;4937900;29;20471;-76
2022/05/19 07:53:40;;;;;;;4.60;3.57;;;25.10;30.10;;;;;;4935051;29;20987;-76
2022/05/19 07:56:09;;;;;;;5.60;3.50;;;25.20;29.50;;;;;;4935290;29;20567;-75
2022/05/19 07:58:36;;;;;;;5.17;3.40;;;25.40;29.00;;;;;;4934761;29;20480;-75
2022/05/19 08:01:02;;;;;;;3.90;3.53;;;25.40;29.70;;;;;;4935127;29;20487;-76
2022/05/19 08:03:30;;;;;;;3.70;3.33;;;25.40;29.00;;;;;;4936466;29;20458;-76
2022/05/19 08:05:56;;;;;;;6.13;3.50;;;25.30;29.70;;;;;;4935050;29;20499;-77
2022/05/19 08:08:23;;;;;;;3.70;3.40;;;25.40;29.60;;;;;;4935881;29;20553;-77
2022/05/19 08:10:50;;;;;;;4.10;3.70;;;25.50;29.30;;;;;;4938678;29;20491;-76
2022/05/19 08:16:14;;;;;;;3.67;3.20;;;25.80;28.80;;;;;;4917456;29;20945;-76
2022/05/19 08:18:41;;;;;;;6.60;3.50;;;26.10;28.40;;;;;;4934237;29;20551;-76
2022/05/19 08:21:11;;;;;;;4.83;3.37;;;26.30;28.10;;;;;;4938914;29;20481;-76
2022/05/19 08:23:43;;;;;;;4.70;3.70;;;26.40;27.00;;;;;;4940341;29;20567;-75
2022/05/19 08:26:10;;;;;;;3.63;3.33;;;26.40;27.20;;;;;;4939758;29;20457;-77
2022/05/19 08:28:39;;;;;;;6.53;3.50;;;26.50;26.90;;;;;;4939840;29;20472;-77
2022/05/19 08:31:09;;;;;;;4.17;3.73;;;26.60;26.90;;;;;;4943016;29;20480;-76
2022/05/19 08:33:38;;;;;;;4.40;3.37;;;26.80;26.80;;;;;;4940762;29;20461;-76
2022/05/19 08:36:07;;;;;;;4.80;3.80;;;26.80;26.80;;;;;;4942023;29;20548;-77
2022/05/19 08:38:33;;;;;;;5.10;3.60;;;26.90;26.80;;;;;;4947463;29;20472;-78
2022/05/19 08:41:04;;;;;;;3.67;3.37;;;26.90;27.00;;;;;;4952373;29;20484;-78
2022/05/19 08:43:40;;;;;;;3.53;3.23;;;27.10;26.80;;;;;;4955737;29;20445;-75
2022/05/19 08:46:15;;;;;;;4.17;3.63;;;27.00;26.80;;;;;;4953022;29;20442;-75
2022/05/19 08:48:42;;;;;;;3.60;3.40;;;27.00;27.00;;;;;;4953603;29;20452;-75
2022/05/19 08:51:10;;;;;;;4.83;3.60;;;27.10;27.30;;;;;;4955781;29;20494;-78
2022/05/19 08:53:41;;;;;;;3.80;3.50;;;27.10;27.00;;;;;;4959550;29;20447;-81
2022/05/19 08:56:17;;;;;;;5.67;3.50;;;27.40;27.20;;;;;;4940460;29;20462;-80
2022/05/19 08:59:10;;;;;;;4.10;3.70;;;27.40;26.70;;;;;;4957140;29;20597;-76
2022/05/19 09:01:43;;;;;;;6.53;3.60;;;27.60;26.80;;;;;;4951816;29;21021;-76
2022/05/19 09:04:29;;;;;;;7.73;4.57;;;27.70;26.80;;;;;;4963641;29;20489;-78
2022/05/19 09:10:02;;;;;;;4.43;3.60;;;27.70;26.90;;;;;;4954340;29;20439;-77
2022/05/19 09:12:32;;;;;;;4.17;3.87;;;27.80;26.90;;;;;;4918247;29;20906;-75
2022/05/19 09:14:59;;;;;;;4.03;3.63;;;28.00;26.80;;;;;;4921265;29;20812;-75
2022/05/19 09:17:31;;;;;;;6.50;3.50;;;28.10;26.10;;;;;;4939783;29;20466;-75
2022/05/19 09:20:06;;;;;;;6.00;3.90;;;28.10;26.60;;;;;;4950251;29;20486;-78
2022/05/19 09:22:34;;;;;;;5.53;3.80;;;28.10;26.70;;;;;;4956040;28;21013;-76
2022/05/19 09:25:04;;;;;;;10.97;5.47;;;28.30;26.40;;;;;;4958049;28;20457;-77
2022/05/19 09:27:34;;;;;;;4.57;4.17;;;28.40;26.10;;;;;;4956248;28;20478;-78
2022/05/19 09:30:01;;;;;;;6.70;4.10;;;28.40;26.10;;;;;;4955217;28;21216;-77
2022/05/19 09:32:31;;;;;;;5.00;4.10;;;28.30;27.10;;;;;;4939319;28;20632;-76
2022/05/19 09:35:06;;;;;;;5.20;4.13;;;28.50;26.90;;;;;;4948519;28;20459;-77
2022/05/19 09:37:40;;;;;;;4.20;3.60;;;28.50;26.50;;;;;;4936547;28;20459;-76
2022/05/19 09:40:21;;;;;;;5.10;3.47;;;28.60;26.60;;;;;;4936582;29;20487;-76
2022/05/19 09:42:55;;;;;;;4.50;4.10;;;28.40;27.00;;;;;;4936421;29;20470;-78
2022/05/19 09:45:23;;;;;;;6.20;4.50;;;28.50;26.70;;;;;;4934321;29;20496;-77
2022/05/19 09:47:53;;;;;;;8.83;4.00;;;28.50;26.80;;;;;;4930914;29;20476;-76
2022/05/19 09:50:25;;;;;;;4.80;3.90;;;28.70;26.30;;;;;;4936262;28;20450;-78
2022/05/19 09:53:00;;;;;;;5.07;4.57;;;28.90;26.40;;;;;;4954330;29;20464;-78
2022/05/19 09:55:27;;;;;;;4.73;4.10;;;29.00;26.40;;;;;;4956150;28;20465;-76
2022/05/19 09:57:57;;;;;;;6.43;4.07;;;28.90;26.40;;;;;;4955447;28;20458;-77
2022/05/19 10:00:32;;;;;;;4.43;4.03;;;29.00;26.40;;;;;;4952587;28;20502;-75
2022/05/19 10:03:02;;;;;;;6.03;3.83;;;28.80;26.40;;;;;;4935945;29;21012;-77
2022/05/19 10:05:37;;;;;;;5.07;4.00;;;28.80;27.30;;;;;;4935779;29;20467;-75
2022/05/19 10:08:07;;;;;;;5.27;3.70;;;29.10;26.60;;;;;;4935682;29;20899;-77
2022/05/19 10:10:43;;;;;;;4.07;3.70;;;29.40;26.70;;;;;;4936103;29;20506;-76
2022/05/19 10:13:14;;;;;;;10.10;4.70;;;29.60;26.80;;;;;;4938027;29;20515;-77
2022/05/19 10:15:50;;;;;;;4.83;3.80;;;29.80;26.90;;;;;;4944682;29;20472;-78
2022/05/19 10:18:30;;;;;;;6.00;4.17;;;29.90;27.00;;;;;;4943985;28;20466;-79
2022/05/19 10:21:09;;;;;;;5.30;4.13;;;29.90;26.90;;;;;;4938943;29;20554;-78
2022/05/19 10:23:49;;;;;;;4.43;4.03;;;30.00;26.40;;;;;;4944057;29;20509;-79
2022/05/19 10:26:29;;;;;;;5.77;3.90;;;30.00;25.80;;;;;;4943534;29;20485;-79
2022/05/19 10:32:18;;;;;;;4.10;3.80;;;29.80;26.00;;;;;;4910184;29;20963;-77
2022/05/19 10:34:57;;;;;;;4.70;4.20;;;29.90;25.90;;;;;;4935447;29;20489;-77
2022/05/19 10:37:34;;;;;;;5.47;4.17;;;30.00;25.60;;;;;;4941733;29;20436;-79
2022/05/19 10:40:15;;;;;;;4.43;3.60;;;30.00;25.30;;;;;;4936403;29;20993;-78
2022/05/19 10:42:49;;;;;;;4.17;3.77;;;29.90;25.80;;;;;;4935621;29;20552;-77
2022/05/19 10:45:22;;;;;;;4.13;3.73;;;30.00;25.80;;;;;;4935988;29;20543;-78
2022/05/19 10:48:15;;;;;;;4.83;4.40;;;30.30;25.40;;;;;;4936166;29;20509;-77
2022/05/19 10:50:49;;;;;;;5.27;4.23;;;30.50;25.20;;;;;;4935651;29;20485;-76
2022/05/19 10:53:43;;;;;;;4.00;3.70;;;30.60;24.50;;;;;;4936169;29;20469;-77
2022/05/19 10:56:23;;;;;;;4.10;3.80;;;30.70;24.50;;;;;;4935960;29;20462;-76
2022/05/19 10:59:14;;;;;;;4.30;4.00;;;31.00;23.30;;;;;;4935297;29;20483;-77
2022/05/19 11:01:51;;;;;;;4.40;4.10;;;30.90;23.70;;;;;;4935160;29;20491;-78
2022/05/19 11:04:39;;;;;;;5.50;4.17;;;31.00;24.10;;;;;;4935871;29;20591;-77
2022/05/19 11:07:30;;;;;;;6.23;4.60;;;31.20;24.60;;;;;;4935545;29;20463;-78
2022/05/19 11:10:04;;;;;;;6.83;3.73;;;31.10;23.40;;;;;;4917130;29;20451;-78
2022/05/19 11:12:37;;;;;;;3.97;3.67;;;31.20;23.10;;;;;;4925542;29;20479;-77
2022/05/19 11:15:14;;;;;;;6.23;3.70;;;31.10;23.10;;;;;;4948978;29;20436;-77
2022/05/19 11:17:52;;;;;;;5.20;3.57;;;31.30;22.70;;;;;;4940078;29;20478;-78
2022/05/19 11:20:23;;;;;;;4.87;4.00;;;31.30;23.30;;;;;;4943193;29;20493;-78
2022/05/19 11:22:56;;;;;;;4.80;3.83;;;31.10;22.90;;;;;;4940316;29;20802;-77
2022/05/19 11:28:20;;;;;;;5.83;3.13;;;31.20;23.20;;;;;;4936943;29;20455;-78
2022/05/19 11:30:54;;;;;;;5.50;3.60;;;31.20;22.40;;;;;;4937669;29;20475;-79
2022/05/19 11:33:27;;;;;;;4.57;3.97;;;31.30;22.10;;;;;;4936577;29;20841;-77
2022/05/19 11:35:59;;;;;;;10.23;4.30;;;31.50;22.10;;;;;;4935076;29;20452;-76
2022/05/19 11:38:32;;;;;;;3.87;3.57;;;31.70;21.90;;;;;;4935481;29;20466;-78
2022/05/19 11:41:12;;;;;;;3.80;3.60;;;31.70;21.40;;;;;;4937342;29;20449;-77
2022/05/19 11:43:44;;;;;;;4.43;4.03;;;31.90;21.70;;;;;;4958183;29;20440;-78
2022/05/19 11:46:15;;;;;;;8.63;3.70;;;32.10;22.00;;;;;;4951389;28;20426;-77
2022/05/19 11:57:30;;;;;;;4.93;3.83;;;32.30;21.20;;;;;;4944528;29;20555;-76
2022/05/19 12:00:00;;;;;;;4.17;3.70;;;32.50;19.90;;;;;;4940046;29;20489;-77
2022/05/19 12:02:33;;;;;;;8.63;4.03;;;32.60;19.90;;;;;;4939341;29;21012;-76
2022/05/19 12:05:10;;;;;;;4.80;3.67;;;32.40;19.80;;;;;;4938421;29;21013;-77
2022/05/19 12:07:49;;;;;;;3.93;3.53;;;32.30;20.20;;;;;;4935710;29;20472;-77
2022/05/19 12:10:23;;;;;;;4.40;3.60;;;32.20;20.60;;;;;;4938799;29;20469;-78
2022/05/19 12:12:59;;;;;;;4.70;3.70;;;32.20;20.10;;;;;;4946435;29;20475;-75
2022/05/19 12:15:32;;;;;;;5.47;3.27;;;32.20;20.10;;;;;;4951924;29;20453;-76
2022/05/19 12:18:01;;;;;;;5.30;3.63;;;32.10;20.30;;;;;;4949635;28;20437;-76
2022/05/19 12:20:54;;;;;;;5.83;3.27;;;32.30;19.80;;;;;;4970465;28;20483;-78
2022/05/19 12:23:28;;;;;;;12.00;3.47;;;32.40;19.80;;;;;;4980166;28;20453;-79
2022/05/19 12:25:59;;;;;;;4.37;3.97;;;32.50;19.90;;;;;;4979430;28;20477;-80
2022/05/19 12:28:39;;;;;;;6.00;3.80;;;32.70;20.00;;;;;;4964617;28;20450;-76
2022/05/19 12:34:02;;;;;;;5.33;3.30;;;33.20;19.30;;;;;;4946832;29;20448;-80
2022/05/19 12:36:38;;;;;;;5.40;3.73;;;33.30;19.30;;;;;;4979899;28;20494;-79
2022/05/19 12:39:11;;;;;;;6.40;3.40;;;33.30;18.80;;;;;;4965740;28;20480;-77
2022/05/19 12:41:54;;;;;;;6.50;3.13;;;33.80;18.00;;;;;;4970841;28;20438;-77
2022/05/19 12:44:31;;;;;;;3.87;3.10;;;33.70;16.60;;;;;;4972540;28;20482;-78
2022/05/19 12:47:03;;;;;;;8.67;3.90;;;33.70;16.20;;;;;;4959167;28;20467;-78
2022/05/19 12:49:31;;;;;;;5.67;3.03;;;33.50;16.90;;;;;;4957488;28;20475;-78
2022/05/19 12:52:00;;;;;;;8.33;3.13;;;33.40;17.40;;;;;;4956787;28;20865;-78
2022/05/19 12:54:29;;;;;;;4.57;3.73;;;33.70;17.30;;;;;;4932219;28;20980;-79
2022/05/19 12:57:25;;;;;;;5.40;3.30;;;33.80;16.30;;;;;;4961667;28;20457;-76
2022/05/19 13:00:12;;;;;;;4.07;3.50;;;33.80;16.30;;;;;;4941520;28;20486;-79
2022/05/19 13:02:47;;;;;;;5.57;3.20;;;33.90;16.30;;;;;;4944277;29;20504;-80
2022/05/19 13:05:21;;;;;;;5.50;3.40;;;33.80;16.30;;;;;;4938196;29;20493;-77
2022/05/19 13:07:51;;;;;;;3.70;3.30;;;33.70;16.20;;;;;;4938519;29;20491;-80
2022/05/19 13:10:22;;;;;;;12.90;4.00;;;33.80;16.30;;;;;;4940073;29;20817;-80
2022/05/19 13:12:58;;;;;;;5.47;3.13;;;33.60;16.10;;;;;;4939830;29;20464;-80
2022/05/19 13:15:27;;;;;;;5.63;3.60;;;33.40;16.50;;;;;;4946881;29;20820;-80
2022/05/19 13:17:56;;;;;;;6.33;3.40;;;33.50;16.60;;;;;;4945692;29;20905;-80
2022/05/19 13:20:27;;;;;;;6.67;3.70;;;33.40;16.80;;;;;;4941697;29;20496;-81
2022/05/19 13:22:59;;;;;;;7.13;3.70;;;33.40;17.00;;;;;;4940753;29;20438;-77
2022/05/19 13:25:26;;;;;;;7.97;3.90;;;33.40;17.30;;;;;;4941793;29;20557;-77
2022/05/19 13:30:53;;;;;;;4.93;4.43;;;33.10;17.80;;;;;;4942256;29;20530;-80
2022/05/19 13:33:23;;;;;;;6.23;3.90;;;33.30;17.50;;;;;;4947632;29;20561;-77